sensor_id;sensor_type;location;lat;lon;timestamp;pressure;altitude;pressure_sealevel;temperature;humidity
12077;BME280;12420;42.676;23.262;2023-02-28T00:00:47;95000.47;;;8.17;100.00
12077;BME280;12420;42.676;23.262;2023-02-28T00:03:15;94993.66;;;8.01;100.00
12077;BME280;12420;42.676;23.262;2023-02-28T00:05:42;95008.22;;;8.18;100.00
12077;BME280;12420;42.676;23.262;2023-02-28T00:08:09;95012.47;;;8.25;100.00
12077;BME280;12420;42.676;23.262;2023-02-28T00:10:36;95017.25;;;8.24;100.00
12077;BME280;12420;42.676;23.262;2023-02-28T00:13:04;95007.22;;;8.33;100.00
12077;BME280;12420;42.676;23.262;2023-02-28T00:15:32;95015.50;;;8.44;100.00
12077;BME280;12420;42.676;23.262;2023-02-28T00:17:59;95011.97;;;8.15;100.00
12077;BME280;12420;42.676;23.262;2023-02-28T00:20:27;95020.50;;;8.51;100.00
12077;BME280;12420;42.676;23.262;2023-02-28T00:22:54;95029.03;;;8.53;100.00
12077;BME280;12420;42.676;23.262;2023-02-28T00:25:23;95044.84;;;8.58;100.00
12077;BME280;12420;42.676;23.262;2023-02-28T00:27:50;95019.25;;;8.41;100.00
12077;BME280;12420;42.676;23.262;2023-02-28T00:30:18;95041.06;;;8.61;100.00
12077;BME280;12420;42.676;23.262;2023-02-28T00:32:46;95012.47;;;8.53;100.00
12077;BME280;12420;42.676;23.262;2023-02-28T00:35:13;95024.00;;;8.63;100.00
12077;BME280;12420;42.676;23.262;2023-02-28T00:37:41;95039.75;;;8.85;100.00
12077;BME280;12420;42.676;23.262;2023-02-28T00:40:09;95044.03;;;8.75;100.00
12077;BME280;12420;42.676;23.262;2023-02-28T00:42:37;95038.78;;;8.77;100.00
12077;BME280;12420;42.676;23.262;2023-02-28T00:45:05;95034.78;;;8.66;100.00
12077;BME280;12420;42.676;23.262;2023-02-28T00:47:32;94985.41;;;8.23;100.00
12077;BME280;12420;42.676;23.262;2023-02-28T00:49:59;95020.50;;;8.45;100.00
12077;BME280;12420;42.676;23.262;2023-02-28T00:52:26;95035.03;;;8.57;100.00
12077;BME280;12420;42.676;23.262;2023-02-28T00:54:54;95034.56;;;8.53;100.00
12077;BME280;12420;42.676;23.262;2023-02-28T00:57:22;95017.78;;;8.40;100.00
12077;BME280;12420;42.676;23.262;2023-02-28T00:59:48;95034.53;;;8.42;100.00
12077;BME280;12420;42.676;23.262;2023-02-28T01:02:15;95033.78;;;8.30;100.00
12077;BME280;12420;42.676;23.262;2023-02-28T01:04:43;94974.63;;;7.80;100.00
12077;BME280;12420;42.676;23.262;2023-02-28T01:07:10;95013.47;;;8.11;100.00
12077;BME280;12420;42.676;23.262;2023-02-28T01:09:36;95010.47;;;8.09;100.00
12077;BME280;12420;42.676;23.262;2023-02-28T01:12:06;95027.75;;;7.98;100.00
12077;BME280;12420;42.676;23.262;2023-02-28T01:14:33;94995.44;;;7.81;100.00
12077;BME280;12420;42.676;23.262;2023-02-28T01:17:01;94987.66;;;7.69;100.00
12077;BME280;12420;42.676;23.262;2023-02-28T01:19:28;95024.50;;;7.94;100.00
12077;BME280;12420;42.676;23.262;2023-02-28T01:21:54;95027.50;;;7.79;100.00
12077;BME280;12420;42.676;23.262;2023-02-28T01:24:21;95022.72;;;7.74;100.00
12077;BME280;12420;42.676;23.262;2023-02-28T01:26:48;95028.94;;;7.57;100.00
12077;BME280;12420;42.676;23.262;2023-02-28T01:29:16;95020.94;;;7.54;100.00
12077;BME280;12420;42.676;23.262;2023-02-28T01:31:43;95028.66;;;7.50;100.00
12077;BME280;12420;42.676;23.262;2023-02-28T01:34:09;95012.63;;;7.43;100.00
12077;BME280;12420;42.676;23.262;2023-02-28T01:36:36;95017.84;;;7.29;100.00
12077;BME280;12420;42.676;23.262;2023-02-28T01:39:03;95038.13;;;7.26;100.00
12077;BME280;12420;42.676;23.262;2023-02-28T01:41:31;95023.34;;;7.29;100.00
12077;BME280;12420;42.676;23.262;2023-02-28T01:44:01;95039.88;;;7.29;100.00
12077;BME280;12420;42.676;23.262;2023-02-28T01:46:35;95017.41;;;6.82;100.00
12077;BME280;12420;42.676;23.262;2023-02-28T01:49:06;95017.25;;;7.03;100.00
12077;BME280;12420;42.676;23.262;2023-02-28T01:51:39;95034.34;;;7.18;100.00
12077;BME280;12420;42.676;23.262;2023-02-28T01:54:12;95032.59;;;7.21;100.00
12077;BME280;12420;42.676;23.262;2023-02-28T01:56:44;95038.56;;;7.08;100.00
12077;BME280;12420;42.676;23.262;2023-02-28T01:59:14;95017.16;;;6.86;100.00
12077;BME280;12420;42.676;23.262;2023-02-28T02:01:46;95010.28;;;7.13;100.00
12077;BME280;12420;42.676;23.262;2023-02-28T02:04:12;95016.56;;;7.19;100.00
12077;BME280;12420;42.676;23.262;2023-02-28T02:06:43;95025.91;;;7.44;100.00
12077;BME280;12420;42.676;23.262;2023-02-28T02:09:10;95020.66;;;7.52;100.00
12077;BME280;12420;42.676;23.262;2023-02-28T02:11:39;95005.38;;;7.45;100.00
12077;BME280;12420;42.676;23.262;2023-02-28T02:14:26;95025.44;;;7.57;100.00
12077;BME280;12420;42.676;23.262;2023-02-28T02:17:20;95024.44;;;7.60;100.00
12077;BME280;12420;42.676;23.262;2023-02-28T02:23:25;95021.94;;;7.73;100.00
12077;BME280;12420;42.676;23.262;2023-02-28T02:26:11;95004.94;;;7.64;100.00
12077;BME280;12420;42.676;23.262;2023-02-28T02:29:17;95006.69;;;7.61;100.00
12077;BME280;12420;42.676;23.262;2023-02-28T02:31:57;94992.13;;;7.49;100.00
12077;BME280;12420;42.676;23.262;2023-02-28T02:34:47;94925.69;;;7.08;100.00
12077;BME280;12420;42.676;23.262;2023-02-28T02:37:27;95006.66;;;7.55;100.00
12077;BME280;12420;42.676;23.262;2023-02-28T02:40:02;95016.97;;;7.66;100.00
12077;BME280;12420;42.676;23.262;2023-02-28T02:42:36;95050.03;;;7.72;100.00
12077;BME280;12420;42.676;23.262;2023-02-28T02:45:08;94996.13;;;7.48;100.00
12077;BME280;12420;42.676;23.262;2023-02-28T02:47:37;95030.72;;;7.72;100.00
12077;BME280;12420;42.676;23.262;2023-02-28T02:50:11;95024.94;;;7.58;100.00
12077;BME280;12420;42.676;23.262;2023-02-28T02:52:42;95035.47;;;7.66;100.00
12077;BME280;12420;42.676;23.262;2023-02-28T02:55:10;95040.47;;;7.56;100.00
12077;BME280;12420;42.676;23.262;2023-02-28T02:57:42;95002.84;;;7.36;100.00
12077;BME280;12420;42.676;23.262;2023-02-28T03:00:12;95030.94;;;7.51;100.00
12077;BME280;12420;42.676;23.262;2023-02-28T03:02:42;95041.91;;;7.40;100.00
12077;BME280;12420;42.676;23.262;2023-02-28T03:05:18;95042.63;;;7.29;100.00
12077;BME280;12420;42.676;23.262;2023-02-28T03:07:46;95044.16;;;7.36;100.00
12077;BME280;12420;42.676;23.262;2023-02-28T03:10:28;95041.16;;;7.45;100.00
12077;BME280;12420;42.676;23.262;2023-02-28T03:13:03;95046.94;;;7.42;100.00
12077;BME280;12420;42.676;23.262;2023-02-28T03:15:37;95040.94;;;7.49;100.00
12077;BME280;12420;42.676;23.262;2023-02-28T03:18:10;95058.03;;;7.70;100.00
12077;BME280;12420;42.676;23.262;2023-02-28T03:20:48;95063.31;;;7.79;100.00
12077;BME280;12420;42.676;23.262;2023-02-28T03:23:23;95065.31;;;7.78;100.00
12077;BME280;12420;42.676;23.262;2023-02-28T03:25:58;95075.81;;;7.74;100.00
12077;BME280;12420;42.676;23.262;2023-02-28T03:28:32;95030.19;;;7.56;100.00
12077;BME280;12420;42.676;23.262;2023-02-28T03:31:07;95064.81;;;7.80;100.00
12077;BME280;12420;42.676;23.262;2023-02-28T03:33:39;95064.06;;;7.74;100.00
12077;BME280;12420;42.676;23.262;2023-02-28T03:36:13;95078.53;;;7.63;100.00
12077;BME280;12420;42.676;23.262;2023-02-28T03:38:44;95041.41;;;7.36;100.00
12077;BME280;12420;42.676;23.262;2023-02-28T03:41:16;95018.78;;;7.09;100.00
12077;BME280;12420;42.676;23.262;2023-02-28T03:43:48;95079.25;;;7.47;100.00
12077;BME280;12420;42.676;23.262;2023-02-28T03:46:18;95068.94;;;7.30;100.00
12077;BME280;12420;42.676;23.262;2023-02-28T03:48:51;95089.53;;;7.57;100.00
12077;BME280;12420;42.676;23.262;2023-02-28T03:51:23;95088.81;;;7.68;100.00
12077;BME280;12420;42.676;23.262;2023-02-28T03:53:54;95098.34;;;7.67;100.00
12077;BME280;12420;42.676;23.262;2023-02-28T03:56:27;95089.09;;;7.70;100.00
12077;BME280;12420;42.676;23.262;2023-02-28T03:59:00;95096.88;;;7.77;100.00
12077;BME280;12420;42.676;23.262;2023-02-28T04:01:34;95072.00;;;7.60;100.00
12077;BME280;12420;42.676;23.262;2023-02-28T04:04:02;95096.63;;;7.81;100.00
12077;BME280;12420;42.676;23.262;2023-02-28T04:06:33;95073.53;;;7.56;100.00
12077;BME280;12420;42.676;23.262;2023-02-28T04:09:00;95095.34;;;7.71;100.00
12077;BME280;12420;42.676;23.262;2023-02-28T04:11:33;95076.78;;;7.54;100.00
12077;BME280;12420;42.676;23.262;2023-02-28T04:14:01;95091.56;;;7.63;100.00
12077;BME280;12420;42.676;23.262;2023-02-28T04:16:28;95059.22;;;7.52;100.00
12077;BME280;12420;42.676;23.262;2023-02-28T04:18:55;95066.28;;;7.58;100.00
12077;BME280;12420;42.676;23.262;2023-02-28T04:21:27;95083.56;;;7.76;100.00
12077;BME280;12420;42.676;23.262;2023-02-28T04:23:55;95092.84;;;7.78;100.00
12077;BME280;12420;42.676;23.262;2023-02-28T04:26:28;95086.88;;;7.86;100.00
12077;BME280;12420;42.676;23.262;2023-02-28T04:28:55;95070.06;;;7.83;100.00
12077;BME280;12420;42.676;23.262;2023-02-28T04:31:22;95071.84;;;7.87;100.00
12077;BME280;12420;42.676;23.262;2023-02-28T04:33:49;95034.25;;;7.72;100.00
12077;BME280;12420;42.676;23.262;2023-02-28T04:36:16;95068.34;;;8.03;100.00
12077;BME280;12420;42.676;23.262;2023-02-28T04:38:45;95096.19;;;8.11;100.00
12077;BME280;12420;42.676;23.262;2023-02-28T04:41:16;95086.09;;;7.74;100.00
12077;BME280;12420;42.676;23.262;2023-02-28T04:43:43;95040.88;;;7.32;100.00
12077;BME280;12420;42.676;23.262;2023-02-28T04:46:09;95094.78;;;7.50;100.00
12077;BME280;12420;42.676;23.262;2023-02-28T04:48:38;95092.00;;;7.44;100.00
12077;BME280;12420;42.676;23.262;2023-02-28T04:51:07;95110.09;;;7.56;100.00
12077;BME280;12420;42.676;23.262;2023-02-28T04:53:35;95097.97;;;7.37;100.00
12077;BME280;12420;42.676;23.262;2023-02-28T04:56:02;95095.16;;;7.20;100.00
12077;BME280;12420;42.676;23.262;2023-02-28T04:58:31;95125.00;;;7.33;100.00
12077;BME280;12420;42.676;23.262;2023-02-28T05:01:05;95132.19;;;7.19;100.00
12077;BME280;12420;42.676;23.262;2023-02-28T05:03:38;95119.88;;;7.14;100.00
12077;BME280;12420;42.676;23.262;2023-02-28T05:06:07;95112.59;;;7.06;100.00
12077;BME280;12420;42.676;23.262;2023-02-28T05:08:37;95120.19;;;7.22;100.00
12077;BME280;12420;42.676;23.262;2023-02-28T05:11:06;95088.09;;;7.08;100.00
12077;BME280;12420;42.676;23.262;2023-02-28T05:13:35;95118.72;;;7.32;100.00
12077;BME280;12420;42.676;23.262;2023-02-28T05:16:02;95124.03;;;7.42;100.00
12077;BME280;12420;42.676;23.262;2023-02-28T05:18:29;95019.88;;;6.74;100.00
12077;BME280;12420;42.676;23.262;2023-02-28T05:20:56;95136.81;;;7.45;100.00
12077;BME280;12420;42.676;23.262;2023-02-28T05:23:25;95121.28;;;7.42;100.00
12077;BME280;12420;42.676;23.262;2023-02-28T05:25:53;95100.84;;;7.05;100.00
12077;BME280;12420;42.676;23.262;2023-02-28T05:28:20;95142.31;;;7.39;100.00
12077;BME280;12420;42.676;23.262;2023-02-28T05:30:48;95141.03;;;7.34;100.00
12077;BME280;12420;42.676;23.262;2023-02-28T05:33:15;95073.63;;;6.70;100.00
12077;BME280;12420;42.676;23.262;2023-02-28T05:35:42;95058.53;;;6.60;100.00
12077;BME280;12420;42.676;23.262;2023-02-28T05:38:09;95104.78;;;6.99;100.00
12077;BME280;12420;42.676;23.262;2023-02-28T05:40:38;95078.84;;;7.11;100.00
12077;BME280;12420;42.676;23.262;2023-02-28T05:43:10;95157.47;;;7.72;100.00
12077;BME280;12420;42.676;23.262;2023-02-28T05:45:37;95154.47;;;7.75;100.00
12077;BME280;12420;42.676;23.262;2023-02-28T05:48:05;95160.03;;;7.87;100.00
12077;BME280;12420;42.676;23.262;2023-02-28T05:50:32;95142.72;;;7.80;100.00
12077;BME280;12420;42.676;23.262;2023-02-28T05:52:59;95138.72;;;7.81;100.00
12077;BME280;12420;42.676;23.262;2023-02-28T05:55:26;95163.34;;;8.02;100.00
12077;BME280;12420;42.676;23.262;2023-02-28T05:57:53;95156.84;;;8.05;100.00
12077;BME280;12420;42.676;23.262;2023-02-28T06:00:21;95165.63;;;8.09;100.00
12077;BME280;12420;42.676;23.262;2023-02-28T06:02:48;95164.63;;;8.18;100.00
12077;BME280;12420;42.676;23.262;2023-02-28T06:05:18;95163.41;;;8.24;100.00
12077;BME280;12420;42.676;23.262;2023-02-28T06:07:45;95150.09;;;8.17;100.00
12077;BME280;12420;42.676;23.262;2023-02-28T06:10:13;95159.66;;;8.27;100.00
12077;BME280;12420;42.676;23.262;2023-02-28T06:12:40;95151.84;;;8.15;100.00
12077;BME280;12420;42.676;23.262;2023-02-28T06:15:11;95100.38;;;7.83;100.00
12077;BME280;12420;42.676;23.262;2023-02-28T06:17:38;95144.84;;;8.25;100.00
12077;BME280;12420;42.676;23.262;2023-02-28T06:20:06;95167.94;;;8.39;100.00
12077;BME280;12420;42.676;23.262;2023-02-28T06:22:35;95164.19;;;8.42;100.00
12077;BME280;12420;42.676;23.262;2023-02-28T06:25:02;95161.69;;;8.44;100.00
12077;BME280;12420;42.676;23.262;2023-02-28T06:27:30;95160.69;;;8.47;100.00
12077;BME280;12420;42.676;23.262;2023-02-28T06:29:57;95152.66;;;8.43;100.00
12077;BME280;12420;42.676;23.262;2023-02-28T06:32:24;95170.97;;;8.52;100.00
12077;BME280;12420;42.676;23.262;2023-02-28T06:34:51;95159.19;;;8.46;100.00
12077;BME280;12420;42.676;23.262;2023-02-28T06:37:19;95180.03;;;8.53;100.00
12077;BME280;12420;42.676;23.262;2023-02-28T06:39:47;95195.31;;;8.59;100.00
12077;BME280;12420;42.676;23.262;2023-02-28T06:42:14;95193.81;;;8.58;100.00
12077;BME280;12420;42.676;23.262;2023-02-28T06:44:41;95173.19;;;8.37;100.00
12077;BME280;12420;42.676;23.262;2023-02-28T06:47:08;95193.03;;;8.52;100.00
12077;BME280;12420;42.676;23.262;2023-02-28T06:49:36;95166.16;;;8.36;100.00
12077;BME280;12420;42.676;23.262;2023-02-28T06:52:04;95157.16;;;8.30;100.00
12077;BME280;12420;42.676;23.262;2023-02-28T06:54:31;95187.28;;;8.56;100.00
12077;BME280;12420;42.676;23.262;2023-02-28T06:56:59;95157.91;;;8.36;100.00
12077;BME280;12420;42.676;23.262;2023-02-28T06:59:26;95194.56;;;8.64;100.00
12077;BME280;12420;42.676;23.262;2023-02-28T07:01:53;95145.59;;;8.37;100.00
12077;BME280;12420;42.676;23.262;2023-02-28T07:04:20;95194.81;;;8.72;100.00
12077;BME280;12420;42.676;23.262;2023-02-28T07:06:48;95175.25;;;8.64;100.00
12077;BME280;12420;42.676;23.262;2023-02-28T07:09:15;95186.06;;;8.68;100.00
12077;BME280;12420;42.676;23.262;2023-02-28T07:11:42;95178.00;;;8.47;100.00
12077;BME280;12420;42.676;23.262;2023-02-28T07:14:11;95198.34;;;8.56;100.00
12077;BME280;12420;42.676;23.262;2023-02-28T07:16:38;95158.63;;;8.31;100.00
12077;BME280;12420;42.676;23.262;2023-02-28T07:19:04;95195.84;;;8.58;100.00
12077;BME280;12420;42.676;23.262;2023-02-28T07:21:31;95192.28;;;8.57;100.00
12077;BME280;12420;42.676;23.262;2023-02-28T07:23:58;95189.53;;;8.46;100.00
12077;BME280;12420;42.676;23.262;2023-02-28T07:26:25;95203.84;;;8.50;100.00
12077;BME280;12420;42.676;23.262;2023-02-28T07:28:51;95175.88;;;8.09;100.00
12077;BME280;12420;42.676;23.262;2023-02-28T07:31:21;95182.41;;;8.11;100.00
12077;BME280;12420;42.676;23.262;2023-02-28T07:33:47;95198.25;;;8.27;100.00
12077;BME280;12420;42.676;23.262;2023-02-28T07:36:16;95188.22;;;8.24;100.00
12077;BME280;12420;42.676;23.262;2023-02-28T07:38:45;95178.66;;;8.14;100.00
12077;BME280;12420;42.676;23.262;2023-02-28T07:41:13;95183.66;;;8.10;100.00
12077;BME280;12420;42.676;23.262;2023-02-28T07:43:40;95193.69;;;8.13;100.00
12077;BME280;12420;42.676;23.262;2023-02-28T07:46:09;95180.84;;;7.93;100.00
12077;BME280;12420;42.676;23.262;2023-02-28T07:48:38;95202.16;;;7.93;100.00
12077;BME280;12420;42.676;23.262;2023-02-28T07:51:05;95160.81;;;7.93;100.00
12077;BME280;12420;42.676;23.262;2023-02-28T07:53:31;95189.97;;;8.22;100.00
12077;BME280;12420;42.676;23.262;2023-02-28T07:56:00;95186.72;;;8.29;100.00
12077;BME280;12420;42.676;23.262;2023-02-28T07:58:29;95172.91;;;8.18;100.00
12077;BME280;12420;42.676;23.262;2023-02-28T08:00:57;95200.50;;;8.29;100.00
12077;BME280;12420;42.676;23.262;2023-02-28T08:03:24;95171.41;;;8.17;100.00
12077;BME280;12420;42.676;23.262;2023-02-28T08:05:52;95152.84;;;8.12;100.00
12077;BME280;12420;42.676;23.262;2023-02-28T08:08:19;95180.00;;;8.41;100.00
12077;BME280;12420;42.676;23.262;2023-02-28T08:10:46;95182.75;;;8.47;100.00
12077;BME280;12420;42.676;23.262;2023-02-28T08:13:13;95189.06;;;8.53;100.00
12077;BME280;12420;42.676;23.262;2023-02-28T08:15:41;95190.06;;;8.56;100.00
12077;BME280;12420;42.676;23.262;2023-02-28T08:18:10;95179.44;;;8.32;100.00
12077;BME280;12420;42.676;23.262;2023-02-28T08:20:37;95181.50;;;8.42;100.00
12077;BME280;12420;42.676;23.262;2023-02-28T08:23:05;95194.03;;;8.43;100.00
12077;BME280;12420;42.676;23.262;2023-02-28T08:25:32;95207.56;;;8.41;100.00
12077;BME280;12420;42.676;23.262;2023-02-28T08:27:59;95200.56;;;8.46;100.00
12077;BME280;12420;42.676;23.262;2023-02-28T08:30:26;95211.13;;;8.53;100.00
12077;BME280;12420;42.676;23.262;2023-02-28T08:32:52;95197.09;;;8.68;100.00
12077;BME280;12420;42.676;23.262;2023-02-28T08:35:19;95188.31;;;8.53;100.00
12077;BME280;12420;42.676;23.262;2023-02-28T08:37:47;95219.88;;;8.57;100.00
12077;BME280;12420;42.676;23.262;2023-02-28T08:40:18;95191.78;;;8.42;100.00
12077;BME280;12420;42.676;23.262;2023-02-28T08:42:45;95206.03;;;8.35;100.00
12077;BME280;12420;42.676;23.262;2023-02-28T08:45:13;95165.13;;;8.16;100.00
12077;BME280;12420;42.676;23.262;2023-02-28T08:47:39;95202.09;;;8.53;100.00
12077;BME280;12420;42.676;23.262;2023-02-28T08:50:08;95200.84;;;8.48;100.00
12077;BME280;12420;42.676;23.262;2023-02-28T08:52:37;95200.31;;;8.44;100.00
12077;BME280;12420;42.676;23.262;2023-02-28T08:55:05;95196.31;;;8.62;100.00
12077;BME280;12420;42.676;23.262;2023-02-28T08:57:34;95205.88;;;8.55;100.00
12077;BME280;12420;42.676;23.262;2023-02-28T09:00:01;95200.84;;;8.48;100.00
12077;BME280;12420;42.676;23.262;2023-02-28T09:02:30;95204.84;;;8.58;100.00
12077;BME280;12420;42.676;23.262;2023-02-28T09:04:56;95182.78;;;8.58;100.00
12077;BME280;12420;42.676;23.262;2023-02-28T09:07:24;95204.63;;;8.73;100.00
12077;BME280;12420;42.676;23.262;2023-02-28T09:09:50;95131.81;;;8.20;100.00
12077;BME280;12420;42.676;23.262;2023-02-28T09:12:20;95179.28;;;8.63;100.00
12077;BME280;12420;42.676;23.262;2023-02-28T09:14:48;95200.38;;;8.89;100.00
12077;BME280;12420;42.676;23.262;2023-02-28T09:17:16;95200.34;;;8.95;100.00
12077;BME280;12420;42.676;23.262;2023-02-28T09:19:43;95155.94;;;8.59;100.00
12077;BME280;12420;42.676;23.262;2023-02-28T09:22:10;95171.50;;;8.79;100.00
12077;BME280;12420;42.676;23.262;2023-02-28T09:24:37;95170.75;;;8.89;100.00
12077;BME280;12420;42.676;23.262;2023-02-28T09:27:05;95191.56;;;9.13;100.00
12077;BME280;12420;42.676;23.262;2023-02-28T09:29:33;95179.00;;;9.12;100.00
12077;BME280;12420;42.676;23.262;2023-02-28T09:32:02;95144.91;;;8.98;100.00
12077;BME280;12420;42.676;23.262;2023-02-28T09:34:31;95178.25;;;9.23;100.00
12077;BME280;12420;42.676;23.262;2023-02-28T09:36:57;95190.28;;;9.42;100.00
12077;BME280;12420;42.676;23.262;2023-02-28T09:39:24;95192.22;;;9.64;100.00
12077;BME280;12420;42.676;23.262;2023-02-28T09:41:56;95195.66;;;9.82;100.00
12077;BME280;12420;42.676;23.262;2023-02-28T09:44:27;95188.41;;;9.78;100.00
12077;BME280;12420;42.676;23.262;2023-02-28T09:46:58;95186.84;;;9.89;100.00
12077;BME280;12420;42.676;23.262;2023-02-28T09:49:34;95190.88;;;9.93;100.00
12077;BME280;12420;42.676;23.262;2023-02-28T09:52:07;95166.25;;;9.84;100.00
12077;BME280;12420;42.676;23.262;2023-02-28T09:54:36;95191.00;;;10.12;100.00
12077;BME280;12420;42.676;23.262;2023-02-28T09:57:07;95180.84;;;9.85;100.00
12077;BME280;12420;42.676;23.262;2023-02-28T10:00:04;95173.56;;;9.82;100.00
12077;BME280;12420;42.676;23.262;2023-02-28T10:02:54;95183.53;;;10.02;100.00
12077;BME280;12420;42.676;23.262;2023-02-28T10:05:29;95180.19;;;10.14;100.00
12077;BME280;12420;42.676;23.262;2023-02-28T10:08:03;95161.66;;;10.04;100.00
12077;BME280;12420;42.676;23.262;2023-02-28T10:10:37;95191.22;;;10.31;100.00
12077;BME280;12420;42.676;23.262;2023-02-28T10:13:13;95175.81;;;10.41;100.00
12077;BME280;12420;42.676;23.262;2023-02-28T10:15:45;95169.25;;;10.45;100.00
12077;BME280;12420;42.676;23.262;2023-02-28T10:18:15;95171.66;;;10.59;100.00
12077;BME280;12420;42.676;23.262;2023-02-28T10:20:49;95164.56;;;10.70;100.00
12077;BME280;12420;42.676;23.262;2023-02-28T10:23:21;95149.03;;;10.61;100.00
12077;BME280;12420;42.676;23.262;2023-02-28T10:25:57;95160.19;;;10.80;100.00
12077;BME280;12420;42.676;23.262;2023-02-28T10:28:26;95151.03;;;10.91;100.00
12077;BME280;12420;42.676;23.262;2023-02-28T10:30:56;95149.97;;;10.99;100.00
12077;BME280;12420;42.676;23.262;2023-02-28T10:33:25;95154.19;;;11.06;100.00
12077;BME280;12420;42.676;23.262;2023-02-28T10:35:57;95141.13;;;11.01;100.00
12077;BME280;12420;42.676;23.262;2023-02-28T10:38:26;95143.94;;;11.25;100.00
12077;BME280;12420;42.676;23.262;2023-02-28T10:41:04;95143.53;;;11.40;100.00
12077;BME280;12420;42.676;23.262;2023-02-28T10:43:32;95134.56;;;11.53;100.00
12077;BME280;12420;42.676;23.262;2023-02-28T10:46:02;95116.16;;;11.56;100.00
12077;BME280;12420;42.676;23.262;2023-02-28T10:48:32;95123.66;;;11.80;100.00
12077;BME280;12420;42.676;23.262;2023-02-28T10:51:02;95123.25;;;11.94;100.00
12077;BME280;12420;42.676;23.262;2023-02-28T10:53:46;95120.72;;;11.97;100.00
12077;BME280;12420;42.676;23.262;2023-02-28T10:56:17;95110.50;;;12.05;100.00
12077;BME280;12420;42.676;23.262;2023-02-28T10:58:56;95113.50;;;11.88;100.00
12077;BME280;12420;42.676;23.262;2023-02-28T11:01:27;95107.81;;;11.99;100.00
12077;BME280;12420;42.676;23.262;2023-02-28T11:04:00;95102.56;;;11.95;100.00
12077;BME280;12420;42.676;23.262;2023-02-28T11:06:30;95101.97;;;12.03;100.00
12077;BME280;12420;42.676;23.262;2023-02-28T11:09:00;95059.97;;;11.74;100.00
12077;BME280;12420;42.676;23.262;2023-02-28T11:11:29;95099.19;;;12.03;100.00
12077;BME280;12420;42.676;23.262;2023-02-28T11:14:03;95092.28;;;12.09;100.00
12077;BME280;12420;42.676;23.262;2023-02-28T11:16:32;95101.88;;;12.08;100.00
12077;BME280;12420;42.676;23.262;2023-02-28T11:19:00;95079.22;;;11.85;100.00
12077;BME280;12420;42.676;23.262;2023-02-28T11:21:32;95077.97;;;11.86;100.00
12077;BME280;12420;42.676;23.262;2023-02-28T11:24:04;95087.94;;;11.95;100.00
12077;BME280;12420;42.676;23.262;2023-02-28T11:26:41;95083.13;;;11.95;100.00
12077;BME280;12420;42.676;23.262;2023-02-28T11:29:18;95083.69;;;11.94;100.00
12077;BME280;12420;42.676;23.262;2023-02-28T11:32:13;95084.31;;;11.81;100.00
12077;BME280;12420;42.676;23.262;2023-02-28T11:34:44;95078.34;;;12.15;100.00
12077;BME280;12420;42.676;23.262;2023-02-28T11:37:15;95077.72;;;12.22;100.00
12077;BME280;12420;42.676;23.262;2023-02-28T11:39:46;95069.69;;;12.19;100.00
12077;BME280;12420;42.676;23.262;2023-02-28T11:42:39;95041.53;;;11.77;100.00
12077;BME280;12420;42.676;23.262;2023-02-28T11:45:18;95068.94;;;11.80;100.00
12077;BME280;12420;42.676;23.262;2023-02-28T11:47:53;95072.25;;;11.79;100.00
12077;BME280;12420;42.676;23.262;2023-02-28T11:50:40;95071.53;;;11.97;100.00
12077;BME280;12420;42.676;23.262;2023-02-28T11:53:19;95083.88;;;12.15;100.00
12077;BME280;12420;42.676;23.262;2023-02-28T11:55:50;95058.03;;;11.88;100.00
12077;BME280;12420;42.676;23.262;2023-02-28T11:58:31;95051.94;;;12.08;100.00
12077;BME280;12420;42.676;23.262;2023-02-28T12:01:18;95061.31;;;12.24;100.00
12077;BME280;12420;42.676;23.262;2023-02-28T12:03:58;95067.50;;;12.30;100.00
12077;BME280;12420;42.676;23.262;2023-02-28T12:06:32;95055.63;;;12.16;100.00
12077;BME280;12420;42.676;23.262;2023-02-28T12:09:26;95067.22;;;12.15;100.00
12077;BME280;12420;42.676;23.262;2023-02-28T12:12:07;95063.19;;;11.97;100.00
12077;BME280;12420;42.676;23.262;2023-02-28T12:15:04;95068.53;;;11.95;100.00
12077;BME280;12420;42.676;23.262;2023-02-28T12:17:46;95067.38;;;11.85;100.00
12077;BME280;12420;42.676;23.262;2023-02-28T12:20:25;95064.91;;;12.00;100.00
12077;BME280;12420;42.676;23.262;2023-02-28T12:23:01;95055.16;;;12.12;100.00
12077;BME280;12420;42.676;23.262;2023-02-28T12:26:05;95057.13;;;11.99;100.00
12077;BME280;12420;42.676;23.262;2023-02-28T12:28:39;95062.97;;;11.95;100.00
12077;BME280;12420;42.676;23.262;2023-02-28T12:31:13;95030.28;;;11.88;100.00
12077;BME280;12420;42.676;23.262;2023-02-28T12:33:45;95044.28;;;11.95;100.00
12077;BME280;12420;42.676;23.262;2023-02-28T12:36:17;95056.97;;;12.10;100.00
12077;BME280;12420;42.676;23.262;2023-02-28T12:38:49;95026.09;;;11.81;100.00
12077;BME280;12420;42.676;23.262;2023-02-28T12:41:24;95065.06;;;12.08;100.00
12077;BME280;12420;42.676;23.262;2023-02-28T12:43:55;95050.38;;;11.94;100.00
12077;BME280;12420;42.676;23.262;2023-02-28T12:46:28;95060.56;;;11.86;100.00
12077;BME280;12420;42.676;23.262;2023-02-28T12:48:57;95018.41;;;11.49;100.00
12077;BME280;12420;42.676;23.262;2023-02-28T12:51:25;95034.03;;;11.71;100.00
12077;BME280;12420;42.676;23.262;2023-02-28T12:54:00;95046.03;;;11.99;100.00
12077;BME280;12420;42.676;23.262;2023-02-28T12:56:38;95030.84;;;11.86;100.00
12077;BME280;12420;42.676;23.262;2023-02-28T12:59:14;95044.81;;;12.13;100.00
12077;BME280;12420;42.676;23.262;2023-02-28T13:01:59;95021.00;;;11.66;100.00
12077;BME280;12420;42.676;23.262;2023-02-28T13:04:52;94973.31;;;11.11;100.00
12077;BME280;12420;42.676;23.262;2023-02-28T13:07:45;95038.22;;;11.59;100.00
12077;BME280;12420;42.676;23.262;2023-02-28T13:10:16;95031.47;;;11.55;100.00